^^
Grace C. Lehan Memorial Weather Station Historical Data
Daily Summary for January 1, 2021 Units:  Metric    English   Both
Daily Weekly Monthly Yearly
  High: Low: Average:
Temperature: 16.1 °C 7.8 °C 12.1 °C
Dew Point: 10.1 °C 1.1 °C 5.8 °C
Humidity: 95% 39.3% 70%
Wind Speed: 20.3km/h 0km/h 2.9km/h
Wind Gust: 37km/h - -
Wind- - WNW
Pressure: 1017.8 hPa 1006.7 hPa -
Precipitation: 0 mm    
 
 
Tabular Data for January 1, 2021
Time Temperature Dew Point Pressure Wind Wind Speed Wind Gust Humidity Rainfall Rate (Hourly) solar
00:09 11.6 °C 10.1 °C 1006.7 hPa Calm     90% 0 mm 0 W/m2
00:14 11.6 °C 10 °C 1006.7 hPa Calm     90% 0 mm 0 W/m2
00:19 11.5 °C 9.9 °C 1006.7 hPa Calm     90% 0 mm 0 W/m2
00:24 11.5 °C 9.9 °C 1006.7 hPa Calm     90% 0 mm 0 W/m2
00:29 11.5 °C 9.9 °C 1006.7 hPa Calm     90% 0 mm 0 W/m2
00:34 11.5 °C 9.9 °C 1006.7 hPa Calm     90% 0 mm 0 W/m2
00:39 11.4 °C 9.9 °C 1006.7 hPa Calm     90% 0 mm 0 W/m2
00:44 11.4 °C 9.8 °C 1007 hPa Calm     90% 0 mm 0 W/m2
00:48 11.3 °C 9.8 °C 1007 hPa Calm     90% 0 mm 0 W/m2
00:54 11.3 °C 9.7 °C 1006.7 hPa Calm     90% 0 mm 0 W/m2
00:59 11.2 °C 9.7 °C 1006.7 hPa Calm     90% 0 mm 0 W/m2
01:04 11.2 °C 9.6 °C 1006.7 hPa Calm     90% 0 mm 0 W/m2
01:09 11.1 °C 9.5 °C 1006.7 hPa Calm     90% 0 mm 0 W/m2
01:14 11 °C 9.4 °C 1006.7 hPa Calm     90.2% 0 mm 0 W/m2
01:19 10.9 °C 9.5 °C 1006.7 hPa Calm     90.8% 0 mm 0 W/m2
01:24 10.8 °C 9.4 °C 1006.7 hPa Calm     91% 0 mm 0 W/m2
01:29 10.7 °C 9.3 °C 1006.7 hPa Calm     90.8% 0 mm 0 W/m2
01:34 10.6 °C 9.2 °C 1006.7 hPa Calm     91% 0 mm 0 W/m2
01:39 10.5 °C 9.1 °C 1007 hPa Calm     91% 0 mm 0 W/m2
01:44 10.4 °C 9.1 °C 1007 hPa Calm     91.6% 0 mm 0 W/m2
01:49 10.4 °C 9.2 °C 1007 hPa Calm     92% 0 mm 0 W/m2
01:54 10.4 °C 9.2 °C 1007 hPa Calm     92% 0 mm 0 W/m2
01:59 10.3 °C 9.1 °C 1007 hPa Calm     92% 0 mm 0 W/m2
02:04 10.3 °C 9 °C 1007 hPa Calm     92% 0 mm 0 W/m2
02:09 10.2 °C 8.9 °C 1007.3 hPa Calm     92% 0 mm 0 W/m2
02:14 10.1 °C 8.9 °C 1007.3 hPa Calm     92% 0 mm 0 W/m2
02:19 10.1 °C 8.8 °C 1007.3 hPa Calm     92% 0 mm 0 W/m2
02:24 10.1 °C 8.8 °C 1007.3 hPa Calm     92% 0 mm 0 W/m2
02:29 10 °C 8.8 °C 1007.3 hPa Calm     92% 0 mm 0 W/m2
02:34 9.9 °C 8.7 °C 1007.3 hPa Calm     92% 0 mm 0 W/m2
02:39 9.9 °C 8.6 °C 1007.3 hPa Calm     92% 0 mm 0 W/m2
02:44 9.8 °C 8.6 °C 1007.3 hPa Calm     92% 0 mm 0 W/m2
02:49 9.6 °C 8.4 °C 1007.3 hPa Calm     92% 0 mm 0 W/m2
02:54 9.6 °C 8.3 °C 1007.3 hPa Calm     92% 0 mm 0 W/m2
02:59 9.4 °C 8.3 °C 1007.7 hPa Calm     92.2% 0 mm 0 W/m2
03:04 9.4 °C 8.3 °C 1007.7 hPa Calm     93% 0 mm 0 W/m2
03:09 9.3 °C 8.3 °C 1007.7 hPa Calm     93% 0 mm 0 W/m2
03:14 9.3 °C 8.2 °C 1007.7 hPa Calm     93% 0 mm 0 W/m2
03:19 9.2 °C 8.1 °C 1007.7 hPa Calm     93% 0 mm 0 W/m2
03:24 9.1 °C 8.1 °C 1007.7 hPa Calm     93% 0 mm 0 W/m2
03:29 9.1 °C 8 °C 1008 hPa Calm     93% 0 mm 0 W/m2
03:34 9.1 °C 8.1 °C 1007.7 hPa WSW 0.5 km/h 6.4 km/h 93.3% 0 mm 0 W/m2
03:39 9.2 °C 8.3 °C 1008 hPa Calm   6.4 km/h 94% 0 mm 0 W/m2
03:44 9.2 °C 8.3 °C 1008 hPa Calm   6.4 km/h 94% 0 mm 0 W/m2
03:49 9.2 °C 8.3 °C 1008 hPa WSW 0.2 km/h 6.4 km/h 94% 0 mm 0 W/m2
03:54 9.1 °C 8.2 °C 1008 hPa WSW 0.5 km/h 6.4 km/h 94% 0 mm 0 W/m2
03:59 9.1 °C 8.2 °C 1008 hPa Calm   6.4 km/h 94% 0 mm 0 W/m2
04:00 9.1 °C 8.2 °C 1008 hPa Calm   6.4 km/h 94% 0 mm 0 W/m2
04:09 9.2 °C 8.3 °C 1008.4 hPa Calm     94% 0 mm 0 W/m2
04:14 9.2 °C 8.3 °C 1008.4 hPa Calm     94% 0 mm 0 W/m2
04:19 9.2 °C 8.3 °C 1008.4 hPa Calm     94% 0 mm 0 W/m2
04:24 9.1 °C 8.2 °C 1008.7 hPa Calm     94% 0 mm 0 W/m2
04:29 9 °C 8.1 °C 1008.7 hPa Calm     94% 0 mm 0 W/m2
04:34 8.9 °C 8.1 °C 1008.7 hPa Calm     94% 0 mm 0 W/m2
04:39 8.9 °C 8 °C 1008.7 hPa Calm     94% 0 mm 0 W/m2
04:44 8.9 °C 7.9 °C 1009 hPa Calm     94% 0 mm 0 W/m2
04:49 8.8 °C 7.9 °C 1009 hPa Calm     94% 0 mm 0 W/m2
04:54 8.8 °C 7.9 °C 1009.4 hPa Calm     94% 0 mm 0 W/m2
04:59 8.7 °C 7.8 °C 1009.4 hPa Calm     94% 0 mm 0 W/m2
05:04 8.7 °C 7.8 °C 1009.4 hPa Calm     94% 0 mm 0 W/m2
05:09 8.6 °C 7.7 °C 1009.4 hPa Calm     94% 0 mm 0 W/m2
05:14 8.6 °C 7.7 °C 1009.4 hPa Calm     94% 0 mm 0 W/m2
05:19 8.6 °C 7.7 °C 1009.4 hPa Calm     94% 0 mm 0 W/m2
05:24 8.6 °C 7.7 °C 1009.4 hPa Calm     94% 0 mm 0 W/m2
05:29 8.5 °C 7.6 °C 1009.4 hPa Calm     94% 0 mm 0 W/m2
05:34 8.4 °C 7.6 °C 1009.7 hPa Calm     94% 0 mm 0 W/m2
05:39 8.4 °C 7.5 °C 1009.7 hPa Calm     94% 0 mm 0 W/m2
05:44 8.3 °C 7.4 °C 1009.7 hPa Calm     94% 0 mm 0 W/m2
05:49 8.3 °C 7.4 °C 1009.7 hPa Calm     94% 0 mm 0 W/m2
05:54 8.2 °C 7.3 °C 1009.7 hPa Calm     94% 0 mm 0 W/m2
05:59 8.2 °C 7.2 °C 1010 hPa Calm     94% 0 mm 0 W/m2
06:04 8.1 °C 7.2 °C 1010 hPa Calm     94% 0 mm 0 W/m2
06:09 8 °C 7.1 °C 1010 hPa Calm     94% 0 mm 0 W/m2
06:14 7.9 °C 7.1 °C 1010.4 hPa Calm     94% 0 mm 0 W/m2
06:19 7.9 °C 7 °C 1010.4 hPa Calm     94% 0 mm 0 W/m2
06:24 7.9 °C 6.9 °C 1010.4 hPa Calm     94% 0 mm 0 W/m2
06:29 7.8 °C 6.9 °C 1010.7 hPa Calm     94% 0 mm 0 W/m2
06:34 7.8 °C 6.9 °C 1010.7 hPa Calm     94% 0 mm 0 W/m2
06:39 7.8 °C 6.9 °C 1010.7 hPa Calm     94% 0 mm 0 W/m2
06:44 7.9 °C 7.1 °C 1010.7 hPa Calm     94.3% 0 mm 0 W/m2
06:49 8 °C 7.2 °C 1010.7 hPa Calm     95% 0 mm 0 W/m2
06:54 8.1 °C 7.3 °C 1010.7 hPa Calm     95% 0 mm 0 W/m2
06:59 8.2 °C 7.4 °C 1011.1 hPa Calm     95% 0 mm 0 W/m2
07:04 8.2 °C 7.5 °C 1011.1 hPa Calm     95% 0 mm 0 W/m2
07:09 8.3 °C 7.6 °C 1011.1 hPa Calm     95% 0 mm 0 W/m2
07:14 8.5 °C 7.7 °C 1011.1 hPa WSW 0.2 km/h 4.8 km/h 95% 0 mm 0 W/m2
07:19 8.6 °C 7.8 °C 1011.1 hPa WSW 0.2 km/h 4.8 km/h 95% 0 mm 0 W/m2
07:24 8.7 °C 7.9 °C 1011.1 hPa Calm   4.8 km/h 95% 0 mm 0 W/m2
07:29 8.8 °C 8.1 °C 1011.4 hPa WSW 0.2 km/h 4.8 km/h 95% 0 mm 0 W/m2
07:34 8.9 °C 8.2 °C 1011.4 hPa Calm   4.8 km/h 95% 0 mm 7 W/m2
07:39 9.1 °C 8.3 °C 1011.4 hPa WSW 0.5 km/h 3.2 km/h 95% 0 mm 11 W/m2
07:44 9.2 °C 8.4 °C 1011.4 hPa Calm   3.2 km/h 95% 0 mm 14 W/m2
07:49 9.3 °C 8.6 °C 1011.7 hPa Calm   3.2 km/h 95% 0 mm 11 W/m2
07:54 9.4 °C 8.6 °C 1011.7 hPa Calm   3.2 km/h 95% 0 mm 9 W/m2
07:59 9.5 °C 8.6 °C 1012.1 hPa Calm   3.2 km/h 94.1% 0 mm 9 W/m2
08:00 9.6 °C 8.7 °C 1012.1 hPa Calm   3.2 km/h 94% 0 mm 7 W/m2
08:09 9.7 °C 8.8 °C 1012.8 hPa West 3.2 km/h 8 km/h 94% 0 mm 12 W/m2
08:14 9.8 °C 8.9 °C 1012.8 hPa West 3.7 km/h 16.1 km/h 94% 0 mm 21 W/m2
08:19 9.9 °C 8.9 °C 1012.8 hPa WSW 1.6 km/h 16.1 km/h 93.2% 0 mm 30 W/m2
08:24 10.1 °C 8.9 °C 1012.8 hPa West 2.9 km/h 17.7 km/h 92.7% 0 mm 40 W/m2
08:29 10.3 °C 9 °C 1013.1 hPa West 1.6 km/h 17.7 km/h 91.7% 0 mm 46 W/m2
08:34 10.4 °C 9.1 °C 1013.1 hPa West 0.6 km/h 17.7 km/h 91% 0 mm 49 W/m2
08:39 10.6 °C 9.1 °C 1013.1 hPa Calm   4.8 km/h 90.3% 0 mm 65 W/m2
08:44 10.7 °C 9.2 °C 1013.4 hPa West 1 km/h 4.8 km/h 90% 0 mm 62 W/m2
08:49 10.8 °C 9.1 °C 1013.4 hPa WSW 1.4 km/h 8 km/h 88.8% 0 mm 84 W/m2
08:54 10.9 °C 9 °C 1013.4 hPa WNW 1.4 km/h 19.3 km/h 87.7% 0 mm 84 W/m2
08:59 11.1 °C 9 °C 1013.4 hPa West 1 km/h 19.3 km/h 87% 0 mm 49 W/m2
09:04 11.2 °C 8.8 °C 1013.8 hPa West 2.9 km/h 19.3 km/h 85.4% 0 mm 56 W/m2
09:09 11.3 °C 8.6 °C 1013.8 hPa West 1.1 km/h 16.1 km/h 83.6% 0 mm 125 W/m2
09:14 11.4 °C 8.5 °C 1013.8 hPa West 2.7 km/h 16.1 km/h 82.2% 0 mm 316 W/m2
09:19 11.7 °C 8.3 °C 1013.8 hPa WNW 5.3 km/h 17.7 km/h 80% 0 mm 316 W/m2
09:24 12.1 °C 8.2 °C 1013.8 hPa WNW 4 km/h 17.7 km/h 77.2% 0 mm 327 W/m2
09:29 12.5 °C 7.6 °C 1014.1 hPa WNW 7.4 km/h 32.2 km/h 71.9% 0 mm 345 W/m2
09:34 13.1 °C 7.3 °C 1014.1 hPa NW 8.2 km/h 32.2 km/h 68% 0 mm 362 W/m2
09:39 13.6 °C 6.7 °C 1014.1 hPa WNW 8 km/h 27.4 km/h 62.9% 0 mm 374 W/m2
09:44 14 °C 6.7 °C 1014.1 hPa WNW 6.6 km/h 27.4 km/h 61.3% 0 mm 390 W/m2
09:49 14.4 °C 6.7 °C 1014.4 hPa WNW 6.9 km/h 27.4 km/h 59.7% 0 mm 404 W/m2
09:54 14.7 °C 6.3 °C 1014.4 hPa WNW 6 km/h 27.4 km/h 57.3% 0 mm 415 W/m2
09:59 14.8 °C 5.9 °C 1014.4 hPa WNW 10.9 km/h 27.4 km/h 55.1% 0 mm 434 W/m2
10:04 14.8 °C 5.8 °C 1014.4 hPa WNW 7.4 km/h 27.4 km/h 54.7% 0 mm 446 W/m2
10:09 14.9 °C 5.7 °C 1014.4 hPa WNW 5.8 km/h 20.9 km/h 54% 0 mm 457 W/m2
10:14 15 °C 5.5 °C 1014.8 hPa WNW 9.5 km/h 22.5 km/h 52.9% 0 mm 464 W/m2
10:19 15.1 °C 5.4 °C 1014.8 hPa WNW 6.1 km/h 22.5 km/h 52.5% 0 mm 471 W/m2
10:24 14.9 °C 5.6 °C 1014.8 hPa WNW 4.2 km/h 22.5 km/h 53.2% 0 mm 207 W/m2
10:29 14.8 °C 5.3 °C 1014.8 hPa WNW 7.1 km/h 22.5 km/h 52.8% 0 mm 501 W/m2
10:34 14.9 °C 5.4 °C 1014.8 hPa WNW 5.5 km/h 24.1 km/h 52.9% 0 mm 510 W/m2
10:39 15.1 °C 5.2 °C 1014.8 hPa WNW 6.9 km/h 24.1 km/h 51.6% 0 mm 524 W/m2
10:44 15.2 °C 4.9 °C 1014.8 hPa WNW 5.6 km/h 24.1 km/h 50.2% 0 mm 526 W/m2
10:49 15.2 °C 4.9 °C 1014.8 hPa NW 8.9 km/h 24.1 km/h 50.1% 0 mm 533 W/m2
10:54 15.2 °C 4.9 °C 1014.8 hPa NW 4.2 km/h 24.1 km/h 50.3% 0 mm 297 W/m2
10:59 15.2 °C 4.9 °C 1014.8 hPa WNW 5.6 km/h 24.1 km/h 50.4% 0 mm 540 W/m2
11:04 15.2 °C 5.1 °C 1014.8 hPa NW 5 km/h 24.1 km/h 50.7% 0 mm 536 W/m2
11:09 15.3 °C 4.8 °C 1014.8 hPa WNW 11.1 km/h 29 km/h 49.7% 0 mm 584 W/m2
11:14 15.5 °C 4.9 °C 1014.8 hPa WNW 9 km/h 29 km/h 49.2% 0 mm 589 W/m2
11:19 15.6 °C 3.9 °C 1015.1 hPa WNW 11.6 km/h 29 km/h 45.7% 0 mm 580 W/m2
11:24 15.7 °C 4.2 °C 1015.1 hPa WNW 13 km/h 33.8 km/h 46.2% 0 mm 584 W/m2
11:29 15.7 °C 3.4 °C 1015.1 hPa WNW 20.3 km/h 33.8 km/h 43.8% 0 mm 591 W/m2
11:34 15.5 °C 3.4 °C 1015.1 hPa WNW 12.9 km/h 37 km/h 44.2% 0 mm 598 W/m2
11:39 15.5 °C 3.7 °C 1015.5 hPa WNW 10.9 km/h 37 km/h 45.2% 0 mm 601 W/m2
11:44 15.6 °C 3.8 °C 1015.5 hPa WNW 8.9 km/h 37 km/h 45.4% 0 mm 527 W/m2
11:49 15.7 °C 3.8 °C 1015.5 hPa WNW 8.4 km/h 37 km/h 45.1% 0 mm 564 W/m2
11:54 15.8 °C 3.7 °C 1015.5 hPa WNW 14.3 km/h 37 km/h 44.6% 0 mm 564 W/m2
11:59 15.6 °C 3.1 °C 1015.5 hPa WNW 10.6 km/h 37 km/h 43.1% 0 mm 69 W/m2
12:00 15.5 °C 3.3 °C 1015.5 hPa Calm   37 km/h 44% 0 mm 39 W/m2
12:09 15.5 °C 3.1 °C 1015.5 hPa West 12.2 km/h 25.7 km/h 43.2% 0 mm 290 W/m2
12:14 15.5 °C 3.2 °C 1015.5 hPa WNW 11.3 km/h 30.6 km/h 43.5% 0 mm 376 W/m2
12:19 15.5 °C 3.4 °C 1015.5 hPa WNW 5.1 km/h 30.6 km/h 44.3% 0 mm 139 W/m2
12:24 15.6 °C 4.4 °C 1015.5 hPa WNW 4.8 km/h 30.6 km/h 47.2% 0 mm 67 W/m2
12:29 15.8 °C 3.6 °C 1015.5 hPa West 6.6 km/h 30.6 km/h 44.2% 0 mm 204 W/m2
12:34 15.8 °C 3.8 °C 1015.1 hPa WNW 3.1 km/h 30.6 km/h 44.9% 0 mm 72 W/m2
12:39 15.9 °C 3.9 °C 1015.1 hPa WNW 6 km/h 22.5 km/h 45% 0 mm 156 W/m2
12:44 15.9 °C 3.9 °C 1015.1 hPa WNW 5.6 km/h 22.5 km/h 44.8% 0 mm 160 W/m2
12:49 15.9 °C 3.7 °C 1015.1 hPa WNW 5.6 km/h 22.5 km/h 44.1% 0 mm 144 W/m2
12:54 15.9 °C 3.4 °C 1015.1 hPa WNW 10.6 km/h 25.7 km/h 43.2% 0 mm 564 W/m2
12:59 15.8 °C 3.1 °C 1015.1 hPa NW 7.2 km/h 25.7 km/h 42.5% 0 mm 635 W/m2
13:04 15.8 °C 2.9 °C 1015.1 hPa WNW 9.5 km/h 30.6 km/h 42.1% 0 mm 515 W/m2
13:09 15.7 °C 3 °C 1015.1 hPa West 7.6 km/h 30.6 km/h 42.5% 0 mm 174 W/m2
13:14 15.8 °C 2.8 °C 1015.1 hPa WNW 7.7 km/h 30.6 km/h 41.8% 0 mm 202 W/m2
13:19 15.8 °C 2.3 °C 1015.1 hPa WNW 12.2 km/h 32.2 km/h 40.3% 0 mm 218 W/m2
13:24 15.8 °C 2.3 °C 1015.1 hPa WNW 6.4 km/h 32.2 km/h 40.2% 0 mm 241 W/m2
13:29 15.9 °C 2.1 °C 1015.1 hPa WNW 7.6 km/h 32.2 km/h 39.3% 0 mm 346 W/m2
13:34 16 °C 2.7 °C 1015.1 hPa WNW 6 km/h 32.2 km/h 40.8% 0 mm 346 W/m2
13:39 16.1 °C 2.5 °C 1015.1 hPa WNW 6.6 km/h 19.3 km/h 40% 0 mm 137 W/m2
13:44 16.1 °C 2.6 °C 1015.1 hPa West 7.2 km/h 19.3 km/h 40.3% 0 mm 255 W/m2
13:49 15.9 °C 2.6 °C 1015.1 hPa WNW 8 km/h 20.9 km/h 40.8% 0 mm 301 W/m2
13:54 15.8 °C 2.3 °C 1015.1 hPa WNW 7.6 km/h 20.9 km/h 40% 0 mm 264 W/m2
13:59 15.9 °C 2.9 °C 1015.1 hPa WNW 6.1 km/h 20.9 km/h 41.6% 0 mm 369 W/m2
14:04 16 °C 2.7 °C 1015.1 hPa NW 6.3 km/h 20.9 km/h 40.9% 0 mm 135 W/m2
14:09 16 °C 2.6 °C 1015.1 hPa NW 7.9 km/h 22.5 km/h 40.6% 0 mm 104 W/m2
14:14 15.9 °C 2.8 °C 1015.1 hPa NW 4.8 km/h 22.5 km/h 41.3% 0 mm 185 W/m2
14:19 15.9 °C 2.6 °C 1015.1 hPa WNW 2.1 km/h 22.5 km/h 40.5% 0 mm 116 W/m2
14:24 15.9 °C 2.6 °C 1015.5 hPa WNW 9 km/h 24.1 km/h 40.5% 0 mm 418 W/m2
14:29 15.9 °C 2.4 °C 1015.5 hPa NW 5.8 km/h 24.1 km/h 40.3% 0 mm 418 W/m2
14:34 15.9 °C 2.6 °C 1015.1 hPa WNW 5.1 km/h 24.1 km/h 40.7% 0 mm 478 W/m2
14:39 15.9 °C 2.3 °C 1015.1 hPa WNW 6.3 km/h 20.9 km/h 39.9% 0 mm 478 W/m2
14:44 15.9 °C 2.4 °C 1015.5 hPa WNW 4 km/h 20.9 km/h 40.3% 0 mm 84 W/m2
14:49 15.9 °C 2.8 °C 1015.5 hPa WNW 4.8 km/h 20.9 km/h 41.1% 0 mm 118 W/m2
14:54 15.9 °C 2.8 °C 1015.5 hPa West 2.9 km/h 20.9 km/h 41.3% 0 mm 69 W/m2
14:59 15.9 °C 2.4 °C 1015.5 hPa WSW 2.1 km/h 20.9 km/h 40.3% 0 mm 91 W/m2
15:04 15.8 °C 2.1 °C 1015.5 hPa WNW 2.7 km/h 20.9 km/h 39.4% 0 mm 165 W/m2
15:06 15.8 °C 2.8 °C 1015.5 hPa NW 3.5 km/h 14.5 km/h 41.4% 0 mm 102 W/m2
15:30 15.7 °C 2.4 °C 1015.8 hPa WNW 4.8 km/h 25.7 km/h 41% 0 mm 209 W/m2
16:04 14.7 °C 1.3 °C 1015.8 hPa WNW 1.4 km/h 4.8 km/h 40% 0 mm 25 W/m2
16:09 14.7 °C 1.3 °C 1015.8 hPa WNW 10.3 km/h 25.7 km/h 40% 0 mm 25 W/m2
16:14 14.7 °C 1.1 °C 1016.1 hPa WNW 6.6 km/h 25.7 km/h 39.6% 0 mm 25 W/m2
16:19 14.7 °C 1.4 °C 1016.1 hPa NW 3.4 km/h 25.7 km/h 40.5% 0 mm 23 W/m2
16:24 14.6 °C 1.4 °C 1016.1 hPa WNW 5.1 km/h 25.7 km/h 40.7% 0 mm 23 W/m2
16:29 14.6 °C 1.2 °C 1015.8 hPa WNW 4.5 km/h 25.7 km/h 40.2% 0 mm 21 W/m2
16:34 14.4 °C 1.2 °C 1016.1 hPa WNW 4.7 km/h 25.7 km/h 40.6% 0 mm 21 W/m2
16:39 14.3 °C 1.3 °C 1016.1 hPa NW 6.3 km/h 16.1 km/h 41% 0 mm 19 W/m2
16:44 14.3 °C 1.4 °C 1016.1 hPa NW 4.5 km/h 16.1 km/h 41.5% 0 mm 19 W/m2
16:49 14.2 °C 1.6 °C 1016.1 hPa NW 1.4 km/h 16.1 km/h 42.2% 0 mm 19 W/m2
16:54 14.2 °C 1.6 °C 1016.1 hPa WNW 4.5 km/h 16.1 km/h 42.4% 0 mm 18 W/m2
16:59 14.1 °C 1.3 °C 1016.1 hPa WNW 3.7 km/h 17.7 km/h 41.8% 0 mm 16 W/m2
17:04 14 °C 1.5 °C 1016.1 hPa NW 4.7 km/h 17.7 km/h 42.6% 0 mm 16 W/m2
17:09 13.9 °C 1.3 °C 1016.1 hPa WNW 2.4 km/h 16.1 km/h 42.4% 0 mm 14 W/m2
17:14 13.8 °C 1.4 °C 1016.1 hPa WNW 3.1 km/h 16.1 km/h 42.8% 0 mm 14 W/m2
17:19 13.8 °C 1.3 °C 1016.5 hPa NW 0.6 km/h 16.1 km/h 42.6% 0 mm 12 W/m2
17:24 13.7 °C 1.3 °C 1016.5 hPa NW 0.5 km/h 16.1 km/h 43% 0 mm 11 W/m2
17:29 13.6 °C 1.4 °C 1016.5 hPa NW 0.5 km/h 16.1 km/h 43.5% 0 mm 9 W/m2
17:34 13.5 °C 1.5 °C 1016.8 hPa NW 0.3 km/h 16.1 km/h 44% 0 mm 7 W/m2
17:39 13.3 °C 1.7 °C 1016.8 hPa Calm   4.8 km/h 44.9% 0 mm 5 W/m2
17:44 13.2 °C 1.7 °C 1016.8 hPa Calm   4.8 km/h 45.4% 0 mm 0 W/m2
17:49 13.1 °C 1.6 °C 1016.8 hPa Calm   4.8 km/h 45.7% 0 mm 0 W/m2
17:54 12.8 °C 1.6 °C 1016.8 hPa NW 0.8 km/h 8 km/h 46% 0 mm 0 W/m2
17:59 12.7 °C 1.4 °C 1016.8 hPa NW 1.1 km/h 8 km/h 46% 0 mm 0 W/m2
18:04 12.5 °C 1.2 °C 1017.2 hPa NW 0.2 km/h 8 km/h 46.1% 0 mm 0 W/m2
18:09 12.4 °C 1.3 °C 1017.2 hPa Calm   3.2 km/h 46.7% 0 mm 0 W/m2
18:14 12.2 °C 1.3 °C 1017.2 hPa Calm   3.2 km/h 47% 0 mm 0 W/m2
18:19 12.1 °C 1.2 °C 1017.5 hPa Calm   3.2 km/h 47.2% 0 mm 0 W/m2
18:24 11.9 °C 1.3 °C 1017.5 hPa Calm   3.2 km/h 47.9% 0 mm 0 W/m2
18:29 11.8 °C 1.4 °C 1017.5 hPa Calm   3.2 km/h 49% 0 mm 0 W/m2
18:34 11.7 °C 1.3 °C 1017.5 hPa Calm   3.2 km/h 49% 0 mm 0 W/m2
18:39 11.5 °C 1.3 °C 1017.5 hPa Calm     49.6% 0 mm 0 W/m2
18:43 11.4 °C 1.6 °C 1017.8 hPa Calm     51% 0 mm 0 W/m2
Hartford County Weather
Compliments of Weather Underground - 4 mb